Ahmedabad, India
Current Conditions -  °F | °C
As of 7:40 PM on Thursday 30 Oct 2014 (Local Time) from VAAH Reporting Station
Haze Haze  
Wind Chill: 81°   Ceiling: Unl
Heat Index: 84°   Visibility: 1.8mi
Dew Point: 70°   Wind: 0mph
Humidity: 70%   Direction: NA
Pressure: 29.85"   Gusts: NA
Location:  23.04°N, 72.57°E
Report Text: VAAH 301440Z 00000KT 3000 HZ FEW020 SCT080 27/21 Q1011 NOSIG
Loading
Personal Weather Stations






























Interactive Weather Map
Tropical Storm Tracking
New forecast layout! Learn more

10-Day Weather Forecast

Advertisements
Track Severe Weather on mobile